createdAt,value
2023-04-13T00:05:50.407Z,0
2023-04-13T00:11:50.327Z,0
2023-04-13T00:17:50.377Z,0
2023-04-13T00:23:50.316Z,0
2023-04-13T00:29:50.321Z,0
2023-04-13T00:35:50.370Z,0
2023-04-13T00:41:50.327Z,0
2023-04-13T00:47:50.456Z,0
2023-04-13T00:53:50.324Z,0
2023-04-13T00:59:50.327Z,0
2023-04-13T01:05:50.505Z,0
2023-04-13T01:11:50.320Z,0
2023-04-13T01:18:00.641Z,0
2023-04-13T01:23:50.309Z,0
2023-04-13T01:29:50.320Z,0
2023-04-13T01:35:50.316Z,0
2023-04-13T01:41:50.321Z,0
2023-04-13T01:47:50.418Z,0
2023-04-13T01:53:50.312Z,0
2023-04-13T01:59:50.305Z,0
2023-04-13T02:05:50.311Z,0
2023-04-13T02:11:50.318Z,0
2023-04-13T02:17:50.363Z,0
2023-04-13T02:23:50.306Z,0
2023-04-13T02:29:50.329Z,0
2023-04-13T02:35:50.289Z,0
2023-04-13T02:41:50.308Z,0
2023-04-13T02:47:50.352Z,0
2023-04-13T02:53:50.310Z,0
2023-04-13T02:59:50.336Z,0
2023-04-13T03:05:50.335Z,0
2023-04-13T03:11:50.292Z,0
2023-04-13T03:17:50.314Z,0
2023-04-13T03:23:50.356Z,0
2023-04-13T03:29:50.352Z,0
2023-04-13T03:35:50.294Z,0
2023-04-13T03:41:50.388Z,0
2023-04-13T03:47:50.351Z,0
2023-04-13T03:53:50.300Z,0
2023-04-13T03:59:50.326Z,0
2023-04-13T04:05:50.276Z,0
2023-04-13T04:11:50.278Z,0
2023-04-13T04:17:50.462Z,0
2023-04-13T04:23:50.291Z,0
2023-04-13T04:29:50.288Z,0
2023-04-13T04:35:50.317Z,0
2023-04-13T04:41:50.312Z,0
2023-04-13T04:47:50.419Z,0
2023-04-13T04:53:50.285Z,0
2023-04-13T04:59:50.286Z,0
2023-04-13T05:05:50.276Z,0
2023-04-13T05:11:50.305Z,0
2023-04-13T05:17:50.341Z,0
2023-04-13T05:23:50.295Z,0
2023-04-13T05:29:50.286Z,0
2023-04-13T05:35:50.297Z,0
2023-04-13T05:41:50.334Z,0
2023-04-13T05:47:50.341Z,0
2023-04-13T05:53:50.272Z,0
2023-04-13T05:59:50.285Z,0
2023-04-13T06:05:50.285Z,0
2023-04-13T06:11:50.267Z,0
2023-04-13T06:17:50.283Z,0
2023-04-13T06:23:50.274Z,0
2023-04-13T06:29:50.286Z,0
2023-04-13T06:35:50.260Z,0
2023-04-13T06:41:50.291Z,0
2023-04-13T06:47:50.297Z,0
2023-04-13T06:53:50.273Z,0
2023-04-13T06:59:50.272Z,0
2023-04-13T07:05:50.281Z,0
2023-04-13T07:11:50.312Z,0
2023-04-13T07:17:50.384Z,0
2023-04-13T07:23:50.293Z,0
2023-04-13T07:29:50.272Z,0
2023-04-13T07:35:50.281Z,0
2023-04-13T07:41:50.269Z,0
2023-04-13T07:47:50.321Z,0
2023-04-13T07:53:50.262Z,0
2023-04-13T07:59:50.284Z,0
2023-04-13T08:05:50.280Z,0.4
2023-04-13T08:11:50.283Z,0
2023-04-13T08:17:50.352Z,0
2023-04-13T08:23:50.289Z,0.2
2023-04-13T08:29:50.309Z,1.3
2023-04-13T08:35:50.312Z,2.3
2023-04-13T08:41:50.281Z,1.7
2023-04-13T08:47:50.313Z,1.1
2023-04-13T08:53:50.282Z,0.5
2023-04-13T08:59:50.264Z,1.2
2023-04-13T09:05:50.322Z,1
2023-04-13T09:11:52.009Z,1.2
2023-04-13T09:17:50.305Z,1.8
2023-04-13T09:23:50.285Z,1.7
2023-04-13T09:29:50.311Z,3.2
2023-04-13T09:35:50.309Z,4.9
2023-04-13T09:41:50.300Z,8.6
2023-04-13T09:47:50.368Z,8.1
2023-04-13T09:53:50.288Z,5.5
2023-04-13T09:59:50.280Z,5.1
2023-04-13T10:05:59.674Z,4.3
2023-04-13T10:11:50.296Z,4.7
2023-04-13T10:17:50.420Z,5.3
2023-04-13T10:23:50.276Z,4.5
2023-04-13T10:29:50.371Z,4.7
2023-04-13T10:35:50.289Z,4.9
2023-04-13T10:41:50.280Z,4.9
2023-04-13T10:47:50.321Z,2.1
2023-04-13T10:53:50.275Z,2.6
2023-04-13T11:05:50.335Z,3.4
2023-04-13T11:11:50.289Z,3
2023-04-13T11:17:50.322Z,6.3
2023-04-13T11:23:50.283Z,7
2023-04-13T11:29:50.314Z,6.2
2023-04-13T11:35:50.541Z,5.4
2023-04-13T11:41:50.325Z,7.2
2023-04-13T11:47:50.372Z,7.1
2023-04-13T11:53:50.286Z,5.5
2023-04-13T11:59:50.313Z,5.1
2023-04-13T12:05:50.802Z,4.8
2023-04-13T12:11:58.377Z,4.6
2023-04-13T12:17:57.283Z,6.4
2023-04-13T12:23:50.303Z,6.6
2023-04-13T12:29:50.291Z,8.9
2023-04-13T12:35:50.318Z,8.5
2023-04-13T12:41:50.283Z,9.5
2023-04-13T12:47:50.344Z,9
2023-04-13T12:53:50.303Z,9
2023-04-13T12:59:50.332Z,8.9
2023-04-13T13:05:50.299Z,8.9
2023-04-13T13:11:50.316Z,8.4
2023-04-13T13:17:50.332Z,8.6
2023-04-13T13:23:50.300Z,8.5
2023-04-13T13:29:50.297Z,8
2023-04-13T13:35:50.282Z,8
2023-04-13T13:41:50.350Z,7.6
2023-04-13T13:47:50.345Z,7.9
2023-04-13T13:53:50.301Z,7.8
2023-04-13T13:59:50.309Z,8.9
2023-04-13T14:05:50.306Z,8.9
2023-04-13T14:11:50.303Z,9.3
2023-04-13T14:18:02.580Z,8.6
2023-04-13T14:23:50.331Z,9.6
2023-04-13T14:29:50.298Z,9.2
2023-04-13T14:41:50.303Z,8.2
2023-04-13T14:47:50.397Z,8.4
2023-04-13T14:53:50.285Z,8.9
2023-04-13T14:59:50.321Z,9.4
2023-04-13T15:05:50.523Z,9.8
2023-04-13T15:11:51.342Z,10.4
2023-04-13T15:17:50.367Z,10
2023-04-13T15:29:50.311Z,9.6
2023-04-13T15:35:50.304Z,10.3
2023-04-13T15:41:50.290Z,10.4
2023-04-13T15:47:50.340Z,10.9
2023-04-13T15:53:50.333Z,10.3
2023-04-13T15:59:50.316Z,9.5
2023-04-13T16:05:50.327Z,9.2
2023-04-13T16:11:50.285Z,9.3
2023-04-13T16:17:50.309Z,9.9
2023-04-13T16:23:50.293Z,10.3
2023-04-13T16:29:50.295Z,10.3
2023-04-13T16:35:50.298Z,10.2
2023-04-13T16:41:50.356Z,9.7
2023-04-13T16:47:50.394Z,9.5
2023-04-13T16:53:50.304Z,10.1
2023-04-13T16:59:50.289Z,9.4
2023-04-13T17:05:50.303Z,10.2
2023-04-13T17:11:50.305Z,10.1
2023-04-13T17:18:00.620Z,10.2
2023-04-13T17:23:50.301Z,10.6
2023-04-13T17:29:50.313Z,10.3
2023-04-13T17:35:50.303Z,10.4
2023-04-13T17:41:50.304Z,10.9
2023-04-13T17:47:50.359Z,10.5
2023-04-13T17:53:50.290Z,10.4
2023-04-13T17:59:50.299Z,10.1
2023-04-13T18:05:50.315Z,10.1
2023-04-13T18:11:50.297Z,10.3
2023-04-13T18:17:50.377Z,11.1
2023-04-13T18:23:50.297Z,10.4
2023-04-13T18:29:50.299Z,10.3
2023-04-13T18:35:50.360Z,10.7
2023-04-13T18:41:50.319Z,10.4
2023-04-13T18:47:50.360Z,11.3
2023-04-13T18:53:50.336Z,11.6
2023-04-13T18:59:50.331Z,11.3
2023-04-13T19:05:50.312Z,10.7
2023-04-13T19:11:50.340Z,9
2023-04-13T19:17:50.519Z,10.2
2023-04-13T19:23:50.313Z,9.9
2023-04-13T19:29:50.316Z,10.2
2023-04-13T19:35:50.321Z,9
2023-04-13T19:41:50.379Z,7
2023-04-13T19:47:50.348Z,6.2
2023-04-13T19:53:50.299Z,5.3
2023-04-13T19:59:50.327Z,4.4
2023-04-13T20:05:50.333Z,3.5
2023-04-13T20:11:50.322Z,1
2023-04-13T20:17:50.416Z,0
2023-04-13T20:23:50.292Z,0
2023-04-13T20:29:50.294Z,0
2023-04-13T20:35:50.328Z,0
2023-04-13T20:41:50.302Z,0
2023-04-13T20:47:50.340Z,0
2023-04-13T20:53:50.313Z,0
2023-04-13T20:59:50.308Z,0
2023-04-13T21:05:50.302Z,0
2023-04-13T21:11:50.309Z,0.1
2023-04-13T21:17:50.329Z,0.5
2023-04-13T21:23:50.291Z,0.8
2023-04-13T21:29:50.316Z,1.1
2023-04-13T21:35:50.297Z,1
2023-04-13T21:41:50.304Z,0.9
2023-04-13T21:47:50.343Z,1.6
2023-04-13T21:53:50.307Z,1.3
2023-04-13T21:59:50.296Z,1.2
2023-04-13T22:05:50.304Z,0.7
2023-04-13T22:11:50.314Z,0.4
2023-04-13T22:17:50.328Z,0.4
2023-04-13T22:23:50.295Z,0.3
2023-04-13T22:29:50.305Z,0.3
2023-04-13T22:35:50.301Z,0.3
2023-04-13T22:41:50.351Z,0.1
2023-04-13T22:47:50.334Z,0
2023-04-13T22:53:50.337Z,0
2023-04-13T22:59:50.293Z,0
2023-04-13T23:05:50.291Z,0
2023-04-13T23:11:50.378Z,0
2023-04-13T23:17:50.317Z,0
2023-04-13T23:23:50.482Z,0
2023-04-13T23:29:50.300Z,0
2023-04-13T23:35:50.293Z,0
2023-04-13T23:41:50.319Z,0
2023-04-13T23:47:50.374Z,0
2023-04-13T23:53:50.307Z,0
2023-04-13T23:59:50.295Z,0
